Time;durP1;ratioP1;P1;durP2;ratioP2;P2;SDS_P1;SDS_P2;PMS_P1;PMS_P2;Temp;Humidity;BMP_temperature;BMP_pressure;BME280_temperature;BME280_humidity;BME280_pressure;Samples;Min_cycle;Max_cycle;Signal;HPM_P1;HPM_P2
2021/10/14 00:01:42;;;;;;;24.50;19.90;;;;;;;7.68;81.98;99908.02;1758466;81;20957;-68
2021/10/14 00:04:09;;;;;;;25.85;21.02;;;;;;;7.67;82.01;99897.14;1746142;81;21047;-68
2021/10/14 00:06:35;;;;;;;23.95;19.95;;;;;;;7.66;82.02;99907.30;1750510;81;21403;-68
2021/10/14 00:09:02;;;;;;;25.43;20.57;;;;;;;7.67;82.03;99912.92;1761814;81;20932;-67
2021/10/14 00:11:28;;;;;;;27.02;21.10;;;;;;;7.69;82.02;99922.84;1740733;81;21837;-68
2021/10/14 00:13:55;;;;;;;24.70;20.17;;;;;;;7.70;82.02;99918.41;1743417;81;20939;-68
2021/10/14 00:16:21;;;;;;;24.98;19.27;;;;;;;7.69;82.06;99913.64;1756164;81;20996;-68
2021/10/14 00:18:47;;;;;;;25.60;19.35;;;;;;;7.68;82.08;99913.75;1765198;81;21481;-68
2021/10/14 00:21:14;;;;;;;24.05;20.57;;;;;;;7.67;82.09;99910.29;1762269;81;20944;-68
2021/10/14 00:23:40;;;;;;;23.92;17.57;;;;;;;7.69;82.11;99914.95;1754565;81;21884;-68
2021/10/14 00:26:06;;;;;;;24.35;19.05;;;;;;;7.70;82.11;99917.09;1765250;81;21052;-67
2021/10/14 00:28:33;;;;;;;22.77;19.10;;;;;;;7.70;82.11;99920.56;1756775;81;21358;-67
2021/10/14 00:31:00;;;;;;;23.65;19.02;;;;;;;7.68;82.12;99926.42;1749530;81;20976;-68
2021/10/14 00:33:26;;;;;;;23.18;19.15;;;;;;;7.70;82.12;99930.24;1758822;81;20995;-67
2021/10/14 00:35:53;;;;;;;21.68;16.97;;;;;;;7.71;82.14;99930.60;1765266;81;22600;-68
2021/10/14 00:38:19;;;;;;;22.35;18.40;;;;;;;7.73;82.14;99934.81;1737740;81;20987;-68
2021/10/14 00:40:45;;;;;;;23.47;18.40;;;;;;;7.73;82.11;99933.98;1752787;81;20955;-68
2021/10/14 00:43:12;;;;;;;21.10;17.82;;;;;;;7.73;82.11;99928.72;1764070;81;21023;-68
2021/10/14 00:45:39;;;;;;;21.02;18.17;;;;;;;7.73;82.10;99935.30;1741696;81;21087;-68
2021/10/14 00:48:06;;;;;;;21.80;18.42;;;;;;;7.72;82.12;99941.03;1735100;81;22984;-67
2021/10/14 00:50:32;;;;;;;21.93;18.00;;;;;;;7.73;82.15;99933.50;1763903;81;20967;-68
2021/10/14 00:52:58;;;;;;;25.95;18.77;;;;;;;7.76;82.15;99937.69;1765184;81;20992;-68
2021/10/14 00:55:25;;;;;;;22.73;18.52;;;;;;;7.75;82.14;99940.79;1729959;81;21434;-68
2021/10/14 00:57:51;;;;;;;22.93;17.80;;;;;;;7.75;82.12;99938.16;1745337;81;21001;-68
2021/10/14 01:00:18;;;;;;;22.20;17.77;;;;;;;7.76;82.13;99937.69;1735034;81;21890;-68
2021/10/14 01:02:45;;;;;;;22.70;18.80;;;;;;;7.75;82.14;99939.48;1755760;81;20988;-68
2021/10/14 01:05:11;;;;;;;24.87;17.57;;;;;;;7.77;82.14;99938.05;1755814;81;21007;-68
2021/10/14 01:07:39;;;;;;;23.70;19.10;;;;;;;7.77;82.12;99954.30;1734623;82;21010;-68
2021/10/14 01:10:08;;;;;;;24.50;19.05;;;;;;;7.77;82.11;99952.98;1734906;82;20939;-67
2021/10/14 01:12:35;;;;;;;22.70;17.90;;;;;;;7.77;82.09;99951.19;1754999;81;22635;-68
2021/10/14 01:15:21;;;;;;;26.25;20.27;;;;;;;7.75;82.12;99963.61;1749558;79;21090;-68
2021/10/14 01:17:48;;;;;;;25.25;19.98;;;;;;;7.72;82.07;99959.43;1735178;81;20992;-68
2021/10/14 01:20:14;;;;;;;24.02;19.05;;;;;;;7.72;82.07;99971.70;1749135;81;21412;-68
2021/10/14 01:22:41;;;;;;;24.60;18.57;;;;;;;7.75;82.12;99974.12;1738623;81;20983;-68
2021/10/14 01:25:09;;;;;;;23.22;18.37;;;;;;;7.73;82.11;99979.51;1734698;82;21906;-68
2021/10/14 01:27:37;;;;;;;24.02;19.17;;;;;;;7.73;82.13;99977.36;1753951;81;21050;-68
2021/10/14 01:30:06;;;;;;;24.90;18.92;;;;;;;7.73;82.11;99979.98;1760577;81;21011;-68
2021/10/14 01:32:34;;;;;;;25.27;19.27;;;;;;;7.74;82.15;99976.40;1763905;81;21007;-68
2021/10/14 01:35:00;;;;;;;24.37;18.67;;;;;;;7.74;82.11;99983.81;1764387;81;20999;-67
2021/10/14 01:37:28;;;;;;;27.55;21.27;;;;;;;7.75;82.14;99990.73;1756005;81;21835;-67
2021/10/14 01:39:54;;;;;;;27.80;21.27;;;;;;;7.75;82.10;99995.16;1764945;79;21000;-67
2021/10/14 01:42:20;;;;;;;28.90;21.35;;;;;;;7.74;82.11;99993.01;1765008;81;21000;-67
2021/10/14 01:44:47;;;;;;;29.92;21.93;;;;;;;7.76;82.12;99995.52;1753349;81;20971;-67
2021/10/14 01:47:14;;;;;;;25.60;21.37;;;;;;;7.77;82.08;99992.41;1754348;81;20960;-67
2021/10/14 01:49:40;;;;;;;28.95;20.90;;;;;;;7.75;82.05;99997.31;1743587;81;21839;-67
2021/10/14 01:52:07;;;;;;;29.63;22.62;;;;;;;7.74;82.05;100006.16;1759944;81;20954;-67
2021/10/14 01:54:34;;;;;;;29.82;22.62;;;;;;;7.73;82.04;100010.22;1734605;82;20963;-67
2021/10/14 01:57:00;;;;;;;27.67;20.97;;;;;;;7.73;82.04;100012.37;1751454;81;20932;-67
2021/10/14 01:59:26;;;;;;;28.83;22.60;;;;;;;7.73;82.06;100008.42;1762449;81;21071;-67
2021/10/14 02:01:53;;;;;;;29.25;22.65;;;;;;;7.76;82.04;100012.61;1764193;81;21782;-67
2021/10/14 02:04:19;;;;;;;31.57;24.23;;;;;;;7.75;82.03;100010.94;1763627;81;20975;-67
2021/10/14 02:06:45;;;;;;;30.17;23.02;;;;;;;7.73;82.04;100019.41;1759605;81;20944;-67
2021/10/14 02:09:12;;;;;;;27.85;21.42;;;;;;;7.72;82.04;100017.27;1780719;80;21013;-67
2021/10/14 02:11:39;;;;;;;30.68;23.02;;;;;;;7.72;82.03;100016.39;1785360;80;20992;-67
2021/10/14 02:14:06;;;;;;;34.90;23.75;;;;;;;7.72;82.02;100024.28;1785408;80;21832;-67
2021/10/14 02:16:33;;;;;;;33.25;24.27;;;;;;;7.72;82.01;100024.28;1766431;80;20989;-67
2021/10/14 02:18:59;;;;;;;32.90;24.12;;;;;;;7.74;81.96;100026.34;1773534;80;21360;-68
2021/10/14 02:21:25;;;;;;;32.23;23.85;;;;;;;7.74;81.94;100042.96;1783330;80;20965;-68
2021/10/14 02:23:52;;;;;;;32.90;24.12;;;;;;;7.71;81.90;100043.16;1755067;80;21036;-67
2021/10/14 02:26:18;;;;;;;32.70;24.65;;;;;;;7.73;81.87;100044.39;1764819;80;21830;-68
2021/10/14 02:28:45;;;;;;;34.13;24.85;;;;;;;7.71;81.85;100042.33;1757298;80;20993;-67
2021/10/14 02:31:11;;;;;;;32.23;24.65;;;;;;;7.73;81.85;100049.65;1763653;80;20992;-67
2021/10/14 02:33:38;;;;;;;31.27;24.57;;;;;;;7.73;81.83;100057.06;1754602;81;21021;-67
2021/10/14 02:36:05;;;;;;;31.55;23.77;;;;;;;7.72;81.80;100055.38;1764444;80;21344;-67
2021/10/14 02:38:31;;;;;;;36.05;25.43;;;;;;;7.74;81.77;100056.58;1765995;80;21791;-68
2021/10/14 02:40:58;;;;;;;31.87;23.27;;;;;;;7.75;81.76;100057.78;1785680;80;21008;-68
2021/10/14 02:43:24;;;;;;;33.10;24.92;;;;;;;7.75;81.67;100064.83;1784382;80;20989;-69
2021/10/14 02:45:51;;;;;;;33.73;24.98;;;;;;;7.70;81.61;100071.72;1783989;79;21424;-68
2021/10/14 02:48:17;;;;;;;33.67;24.63;;;;;;;7.66;81.60;100072.91;1756337;80;21012;-68
2021/10/14 02:50:43;;;;;;;32.53;24.27;;;;;;;7.66;81.62;100069.44;1785257;80;21831;-68
2021/10/14 02:53:10;;;;;;;32.42;24.50;;;;;;;7.65;81.65;100075.64;1785295;80;21052;-68
2021/10/14 02:55:37;;;;;;;32.63;25.17;;;;;;;7.63;81.65;100081.02;1779781;80;21051;-68
2021/10/14 02:58:04;;;;;;;34.85;24.67;;;;;;;7.65;81.64;100082.22;1757178;80;21075;-68
2021/10/14 03:00:32;;;;;;;37.08;26.07;;;;;;;7.66;81.62;100082.10;1754956;80;21412;-68
2021/10/14 03:02:59;;;;;;;33.08;24.35;;;;;;;7.67;81.60;100082.46;1754325;81;21838;-68
2021/10/14 03:05:26;;;;;;;35.78;24.87;;;;;;;7.68;81.59;100084.14;1756188;80;21119;-68
2021/10/14 03:07:52;;;;;;;38.75;25.70;;;;;;;7.68;81.55;100092.50;1785259;80;20956;-68
2021/10/14 03:10:21;;;;;;;38.70;26.40;;;;;;;7.69;81.52;100094.17;1782438;80;21456;-68
2021/10/14 03:12:49;;;;;;;34.20;24.72;;;;;;;7.69;81.45;100107.32;1778678;80;21012;-67
2021/10/14 03:15:16;;;;;;;33.78;25.77;;;;;;;7.68;81.36;100109.11;1754456;80;21415;-67
2021/10/14 03:17:42;;;;;;;35.55;25.12;;;;;;;7.66;81.30;100114.95;1785058;80;20981;-67
2021/10/14 03:20:10;;;;;;;28.98;21.65;;;;;;;7.65;81.29;100117.70;1757631;80;20976;-67
2021/10/14 03:22:37;;;;;;;39.10;25.50;;;;;;;7.64;81.26;100119.97;1728847;81;21051;-66
2021/10/14 03:25:04;;;;;;;35.10;24.95;;;;;;;7.61;81.17;100109.66;1754650;80;21021;-67
2021/10/14 03:27:31;;;;;;;40.43;26.65;;;;;;;7.60;81.16;100113.23;1758001;80;21866;-68
2021/10/14 03:29:58;;;;;;;35.85;26.42;;;;;;;7.58;81.14;100120.39;1759495;80;21012;-68
2021/10/14 03:32:24;;;;;;;33.05;24.72;;;;;;;7.56;81.08;100124.92;1765205;80;21008;-68
2021/10/14 03:34:51;;;;;;;32.42;24.63;;;;;;;7.55;81.09;100134.60;1756071;80;20965;-68
2021/10/14 03:37:18;;;;;;;29.35;23.02;;;;;;;7.55;81.02;100137.23;1777299;80;21040;-68
2021/10/14 03:39:44;;;;;;;42.03;31.05;;;;;;;7.55;80.98;100144.27;1785575;80;21804;-68
2021/10/14 03:42:12;;;;;;;44.35;31.37;;;;;;;7.56;80.96;100144.64;1764216;80;21107;-68
2021/10/14 03:44:38;;;;;;;38.80;25.92;;;;;;;7.56;80.95;100138.06;1783565;80;20988;-69
2021/10/14 03:47:04;;;;;;;36.08;26.30;;;;;;;7.55;80.88;100146.42;1765635;80;21569;-67
2021/10/14 03:49:31;;;;;;;32.35;24.72;;;;;;;7.52;80.78;100144.47;1785269;80;21036;-66
2021/10/14 03:51:58;;;;;;;34.23;23.60;;;;;;;7.51;80.79;100148.88;1781520;80;21831;-68
2021/10/14 03:54:25;;;;;;;29.57;22.35;;;;;;;7.52;80.72;100152.35;1754499;81;21355;-68
2021/10/14 03:56:51;;;;;;;29.55;21.75;;;;;;;7.48;80.65;100144.33;1754199;81;20996;-68
2021/10/14 03:59:17;;;;;;;26.10;20.55;;;;;;;7.45;80.65;100155.43;1754298;81;21064;-67
2021/10/14 04:01:44;;;;;;;28.35;21.27;;;;;;;7.44;80.62;100155.54;1733379;80;21599;-68
2021/10/14 04:04:10;;;;;;;33.48;24.18;;;;;;;7.41;80.62;100151.80;1756612;80;21850;-68
2021/10/14 04:06:37;;;;;;;58.02;40.33;;;;;;;7.41;80.62;100157.05;1754201;81;21039;-68
2021/10/14 04:09:03;;;;;;;30.82;23.67;;;;;;;7.39;80.61;100165.52;1754223;81;20981;-67
2021/10/14 04:11:30;;;;;;;27.77;21.45;;;;;;;7.37;80.62;100161.69;1763570;80;21486;-67
2021/10/14 04:13:56;;;;;;;36.40;23.92;;;;;;;7.38;80.58;100165.99;1782663;80;20953;-67
2021/10/14 04:16:23;;;;;;;30.20;22.10;;;;;;;7.37;80.49;100172.20;1783102;80;21823;-68
2021/10/14 04:18:49;;;;;;;29.50;19.92;;;;;;;7.36;80.49;100169.20;1785209;80;21448;-67
2021/10/14 04:21:17;;;;;;;30.85;19.77;;;;;;;7.35;80.45;100174.09;1782944;80;21036;-68
2021/10/14 04:23:44;;;;;;;26.33;17.90;;;;;;;7.39;80.44;100183.91;1778134;80;21429;-68
2021/10/14 04:26:11;;;;;;;26.93;18.67;;;;;;;7.38;80.31;100189.64;1764431;80;21052;-68
2021/10/14 04:28:38;;;;;;;27.55;17.05;;;;;;;7.37;80.25;100191.06;1768342;80;22516;-68
2021/10/14 04:31:05;;;;;;;27.65;17.85;;;;;;;7.35;80.23;100199.06;1750808;80;20998;-68
2021/10/14 04:33:32;;;;;;;25.00;17.60;;;;;;;7.36;80.22;100201.21;1768479;80;20963;-68
2021/10/14 04:36:03;;;;;;;25.17;17.73;;;;;;;7.36;80.17;100203.84;1728907;81;21030;-68
2021/10/14 04:38:30;;;;;;;20.45;15.28;;;;;;;7.36;80.19;100215.19;1775743;80;21004;-69
2021/10/14 04:40:56;;;;;;;21.97;15.75;;;;;;;7.38;80.17;100222.48;1729578;81;21923;-68
2021/10/14 04:43:23;;;;;;;26.17;17.20;;;;;;;7.36;80.04;100219.13;1754627;81;21004;-68
2021/10/14 04:45:53;;;;;;;25.25;17.30;;;;;;;7.35;80.00;100227.96;1754427;81;21016;-67
2021/10/14 04:48:19;;;;;;;21.90;15.90;;;;;;;7.32;79.98;100232.09;1754351;81;20984;-67
2021/10/14 04:50:45;;;;;;;23.15;17.02;;;;;;;7.35;79.96;100236.31;1784069;80;21416;-67
2021/10/14 04:53:12;;;;;;;23.70;16.02;;;;;;;7.36;79.87;100240.14;1785377;80;22486;-67
2021/10/14 04:55:38;;;;;;;23.02;15.48;;;;;;;7.37;79.86;100240.52;1767823;80;21008;-67
2021/10/14 04:58:05;;;;;;;24.30;17.05;;;;;;;7.38;79.78;100249.23;1762847;80;21067;-67
2021/10/14 05:00:33;;;;;;;23.87;16.45;;;;;;;7.37;79.67;100258.06;1772059;80;21001;-68
2021/10/14 05:02:59;;;;;;;20.45;14.47;;;;;;;7.36;79.60;100269.05;1771020;80;21078;-68
2021/10/14 05:05:25;;;;;;;24.05;16.15;;;;;;;7.35;79.56;100265.22;1749137;80;21815;-68
2021/10/14 05:07:52;;;;;;;24.07;15.70;;;;;;;7.32;79.47;100270.18;1759111;80;21348;-68
2021/10/14 05:10:19;;;;;;;20.70;15.83;;;;;;;7.31;79.47;100276.86;1737375;81;21023;-68
2021/10/14 05:12:47;;;;;;;23.20;14.90;;;;;;;7.31;79.52;100277.70;1753109;81;20943;-67
2021/10/14 05:15:13;;;;;;;21.82;15.60;;;;;;;7.31;79.46;100288.69;1765112;81;20938;-68
2021/10/14 05:17:41;;;;;;;21.05;15.60;;;;;;;7.27;79.35;100301.19;1765411;81;20945;-68
2021/10/14 05:20:10;;;;;;;19.98;14.20;;;;;;;7.26;79.32;100308.70;1765168;81;21458;-68
2021/10/14 05:22:36;;;;;;;20.45;14.85;;;;;;;7.28;79.34;100308.60;1765086;81;21007;-68
2021/10/14 05:25:04;;;;;;;20.32;14.13;;;;;;;7.28;79.21;100312.54;1765056;81;21044;-67
2021/10/14 05:27:31;;;;;;;23.12;14.28;;;;;;;7.27;79.11;100310.39;1765071;81;21006;-68
2021/10/14 05:29:57;;;;;;;17.17;13.50;;;;;;;7.28;79.14;100316.01;1744426;81;21757;-67
2021/10/14 05:32:23;;;;;;;21.05;14.80;;;;;;;7.30;79.12;100311.48;1735401;81;20956;-69
2021/10/14 05:34:51;;;;;;;19.87;14.78;;;;;;;7.30;79.00;100314.59;1734808;82;21046;-68
2021/10/14 05:37:18;;;;;;;19.95;15.20;;;;;;;7.30;78.97;100319.84;1738903;81;21042;-76
2021/10/14 05:39:44;;;;;;;18.17;13.65;;;;;;;7.30;79.00;100325.09;1748227;79;21084;-73
2021/10/14 05:42:11;;;;;;;20.85;14.95;;;;;;;7.31;78.96;100326.30;1734980;81;22622;-73
2021/10/14 05:44:37;;;;;;;19.65;13.48;;;;;;;7.34;78.99;100327.91;1753529;81;21030;-72
2021/10/14 05:47:03;;;;;;;17.65;13.70;;;;;;;7.37;78.98;100337.73;1754304;79;20983;-74
2021/10/14 05:49:31;;;;;;;17.82;13.55;;;;;;;7.40;78.90;100334.05;1740406;81;21483;-72
2021/10/14 05:51:57;;;;;;;15.53;12.37;;;;;;;7.42;78.87;100335.63;1734684;82;21022;-72
2021/10/14 05:54:24;;;;;;;15.93;12.58;;;;;;;7.43;78.68;100345.66;1734269;82;22676;-72
2021/10/14 05:56:51;;;;;;;17.52;13.25;;;;;;;7.42;78.58;100336.94;1706559;81;20926;-72
2021/10/14 05:59:17;;;;;;;18.20;13.78;;;;;;;7.43;78.59;100336.46;1765046;81;21030;-68
2021/10/14 06:01:44;;;;;;;19.52;13.43;;;;;;;7.41;78.52;100343.14;1736672;81;21008;-75
2021/10/14 06:04:10;;;;;;;17.52;12.70;;;;;;;7.39;78.21;100336.31;1736687;81;21535;-72
2021/10/14 06:06:37;;;;;;;23.52;12.15;;;;;;;7.40;78.24;100343.25;1734582;81;22236;-70
2021/10/14 06:09:04;;;;;;;18.23;12.93;;;;;;;7.40;78.28;100338.83;1761051;80;21068;-71
2021/10/14 06:11:30;;;;;;;18.92;12.95;;;;;;;7.41;78.19;100340.52;1753129;80;21017;-69
2021/10/14 06:13:56;;;;;;;18.52;12.00;;;;;;;7.44;78.15;100345.58;1760601;80;21024;-72
2021/10/14 06:16:24;;;;;;;17.07;11.88;;;;;;;7.46;78.04;100344.16;1774029;80;21439;-68
2021/10/14 06:18:51;;;;;;;17.55;13.35;;;;;;;7.48;77.98;100342.27;1774049;80;21715;-72
2021/10/14 06:21:18;;;;;;;16.02;12.47;;;;;;;7.51;77.78;100347.30;1767751;80;21080;-71
2021/10/14 06:23:44;;;;;;;19.02;13.20;;;;;;;7.51;77.50;100349.09;1753315;80;21075;-72
2021/10/14 06:26:11;;;;;;;19.52;13.32;;;;;;;7.50;77.44;100353.98;1764412;80;21091;-71
2021/10/14 06:28:38;;;;;;;17.23;12.45;;;;;;;7.50;77.37;100360.08;1755773;80;21076;-69
2021/10/14 06:31:04;;;;;;;17.55;12.98;;;;;;;;;;1758040;80;22215;-70
2021/10/14 06:33:31;;;;;;;17.98;13.62;;;;;;;7.41;77.04;100367.27;1775051;80;21028;-68
2021/10/14 06:35:58;;;;;;;17.25;12.60;;;;;;;7.38;77.04;100372.73;1757404;80;21086;-70
2021/10/14 06:38:24;;;;;;;16.45;11.95;;;;;;;7.36;76.98;100382.50;1778703;80;21000;-77
2021/10/14 06:40:51;;;;;;;22.55;13.40;;;;;;;7.37;77.04;100385.03;1760941;80;21031;-76
2021/10/14 06:43:18;;;;;;;16.65;13.15;;;;;;;7.44;77.23;100385.00;1760481;80;21841;-70
2021/10/14 06:45:44;;;;;;;21.33;13.00;;;;;;;7.53;77.06;100386.18;1772304;80;20996;-71
2021/10/14 06:48:11;;;;;;;16.17;11.93;;;;;;;7.62;76.92;100392.58;1771817;80;21043;-68
2021/10/14 06:50:38;;;;;;;16.60;12.23;;;;;;;7.61;77.01;100389.11;1771495;80;21064;-70
2021/10/14 06:53:08;;;;;;;16.70;11.35;;;;;;;7.64;76.73;100386.77;1767060;80;21072;-70
2021/10/14 06:55:32;;;;;;;17.90;11.63;;;;;;;7.81;76.43;100409.28;1761581;80;21857;-71
2021/10/14 06:57:59;;;;;;;18.30;11.53;;;;;;;7.89;76.21;100406.51;1771331;80;21021;-71
2021/10/14 07:00:25;;;;;;;15.53;11.75;;;;;;;7.94;75.75;100407.53;1773888;80;21455;-69
2021/10/14 07:02:51;;;;;;;15.98;11.50;;;;;;;7.99;75.38;100401.47;1767905;80;21514;-69
2021/10/14 07:05:18;;;;;;;16.52;12.00;;;;;;;8.04;75.34;100406.80;1776788;80;21067;-69
2021/10/14 07:07:44;;;;;;;14.68;11.08;;;;;;;8.08;74.97;100410.52;1765678;80;21895;-70
2021/10/14 07:10:11;;;;;;;14.25;11.12;;;;;;;8.13;74.84;100417.64;1764490;80;21055;-69
2021/10/14 07:12:39;;;;;;;15.38;11.43;;;;;;;8.19;74.59;100426.41;1773275;80;21455;-67
2021/10/14 07:15:09;;;;;;;15.65;11.25;;;;;;;8.23;74.12;100431.84;1771819;80;21095;-68
2021/10/14 07:17:36;;;;;;;15.23;11.08;;;;;;;8.27;74.05;100434.63;1775914;80;20944;-69
2021/10/14 07:20:05;;;;;;;15.60;10.70;;;;;;;8.31;73.59;100450.59;1757525;80;21812;-68
2021/10/14 07:22:33;;;;;;;14.33;10.82;;;;;;;8.36;73.50;100451.60;1769291;80;20985;-65
2021/10/14 07:24:59;;;;;;;14.00;9.98;;;;;;;8.42;73.23;100449.40;1773406;80;21009;-69
2021/10/14 07:27:26;;;;;;;13.22;10.50;;;;;;;8.46;72.95;100458.75;1783223;80;20949;-69
2021/10/14 07:29:52;;;;;;;12.90;10.50;;;;;;;8.53;72.92;100463.97;1754065;81;20985;-70
2021/10/14 07:32:19;;;;;;;16.10;10.90;;;;;;;8.57;72.42;100464.11;1754219;81;21831;-70
2021/10/14 07:34:45;;;;;;;14.38;10.00;;;;;;;8.63;72.47;100460.22;1754217;81;20945;-69
2021/10/14 07:37:13;;;;;;;12.85;9.48;;;;;;;8.70;71.79;100471.18;1754314;81;20984;-70
2021/10/14 07:39:40;;;;;;;14.70;10.30;;;;;;;8.73;71.13;100472.27;1754172;81;21591;-69
2021/10/14 07:42:06;;;;;;;13.60;10.35;;;;;;;8.80;71.35;100469.58;1754315;81;20957;-69
2021/10/14 07:44:33;;;;;;;12.68;8.90;;;;;;;8.89;71.14;100474.20;1755052;80;21839;-69
2021/10/14 07:47:00;;;;;;;13.78;8.95;;;;;;;8.99;70.91;100472.59;1754141;81;20988;-69
2021/10/14 07:49:26;;;;;;;14.58;8.93;;;;;;;9.08;70.67;100473.26;1754566;81;20953;-69
2021/10/14 07:51:52;;;;;;;13.43;9.23;;;;;;;9.18;70.55;100478.23;1754263;81;20977;-69
2021/10/14 07:54:19;;;;;;;13.13;8.35;;;;;;;9.24;69.87;100486.16;1754270;81;20996;-70
2021/10/14 07:56:46;;;;;;;11.97;8.35;;;;;;;9.26;69.43;100488.20;1773705;80;22587;-69
2021/10/14 07:59:12;;;;;;;11.93;8.10;;;;;;;9.31;69.29;100485.24;1754369;81;21000;-69
2021/10/14 08:01:39;;;;;;;11.78;7.92;;;;;;;9.42;69.30;100484.83;1758773;80;21075;-70
2021/10/14 08:04:05;;;;;;;10.78;8.38;;;;;;;9.51;69.08;100489.91;1785605;80;20985;-70
2021/10/14 08:06:32;;;;;;;10.40;8.15;;;;;;;9.62;69.15;100491.75;1785263;80;20937;-70
2021/10/14 08:08:59;;;;;;;12.20;8.40;;;;;;;9.72;68.69;100497.55;1785301;80;21752;-70
2021/10/14 08:11:25;;;;;;;13.48;8.70;;;;;;;9.79;67.68;100497.11;1751575;80;21378;-69
2021/10/14 08:13:52;;;;;;;13.95;8.38;;;;;;;9.83;67.73;100504.67;1734717;82;21051;-70
2021/10/14 08:16:20;;;;;;;10.80;8.28;;;;;;;9.87;67.39;100505.30;1734646;82;21491;-68
2021/10/14 08:18:47;;;;;;;13.38;8.08;;;;;;;9.96;67.66;100510.73;1740442;81;20971;-70
2021/10/14 08:21:14;;;;;;;10.50;7.85;;;;;;;10.08;67.42;100504.17;1765055;81;21753;-70
2021/10/14 08:23:40;;;;;;;12.73;8.70;;;;;;;10.14;66.56;100507.69;1756356;81;20998;-69
2021/10/14 08:26:08;;;;;;;12.40;8.50;;;;;;;10.20;66.25;100505.40;1734574;82;20954;-69
2021/10/14 08:28:35;;;;;;;12.70;7.87;;;;;;;10.28;66.27;100503.53;1734518;82;20992;-69
2021/10/14 08:31:02;;;;;;;9.90;7.62;;;;;;;10.36;65.95;100509.08;1734616;82;21501;-70
2021/10/14 08:33:28;;;;;;;12.60;8.10;;;;;;;10.39;65.86;100511.47;1734772;82;22536;-69
2021/10/14 08:35:55;;;;;;;12.40;8.55;;;;;;;10.49;65.60;100514.25;1742505;81;20881;-69
2021/10/14 08:38:21;;;;;;;10.85;7.92;;;;;;;10.58;65.51;100514.87;1765117;81;20971;-69
2021/10/14 08:40:48;;;;;;;13.00;8.05;;;;;;;10.66;64.49;100521.72;1764928;81;21135;-69
2021/10/14 08:43:17;;;;;;;10.10;7.12;;;;;;;10.69;64.17;100520.16;1733314;81;20956;-69
2021/10/14 08:45:47;;;;;;;10.98;7.65;;;;;;;10.78;64.25;100526.53;1765292;81;21809;-69
2021/10/14 08:48:14;;;;;;;10.05;6.85;;;;;;;10.84;63.77;100529.55;1765117;81;20940;-69
2021/10/14 08:50:44;;;;;;;12.60;7.67;;;;;;;10.92;63.44;100544.81;1751012;81;21310;-70
2021/10/14 08:53:11;;;;;;;12.45;6.78;;;;;;;10.96;63.10;100544.08;1735520;81;21055;-68
2021/10/14 08:55:38;;;;;;;11.70;7.00;;;;;;;10.99;63.21;100553.08;1734796;82;21489;-69
2021/10/14 08:58:09;;;;;;;9.60;6.75;;;;;;;11.01;62.49;100544.57;1720967;81;22634;-72
2021/10/14 09:00:37;;;;;;;9.20;6.75;;;;;;;11.05;62.43;100553.45;1764519;81;21396;-71
2021/10/14 09:03:29;;;;;;;11.43;7.40;;;;;;;11.11;62.23;100544.20;1746187;81;20968;-73
2021/10/14 09:05:55;;;;;;;8.68;6.37;;;;;;;11.22;62.14;100551.28;1765180;81;21672;-71
2021/10/14 09:08:39;;;;;;;10.43;6.62;;;;;;;11.32;61.62;100556.20;1765057;79;20960;-73
2021/10/14 09:11:12;;;;;;;12.75;7.08;;;;;;;11.44;62.00;100552.57;1742163;81;21793;-72
2021/10/14 09:13:54;;;;;;;9.30;6.00;;;;;;;11.59;60.24;100554.48;1765049;81;21018;-71
2021/10/14 09:16:36;;;;;;;7.45;6.20;;;;;;;11.62;59.88;100553.73;1729245;81;21094;-73
2021/10/14 09:19:21;;;;;;;10.10;5.72;;;;;;;11.62;60.15;100566.97;1765065;81;20943;-73
2021/10/14 09:22:01;;;;;;;8.10;5.62;;;;;;;11.63;58.93;100558.06;1765186;81;20975;-72
2021/10/14 09:24:35;;;;;;;7.78;5.78;;;;;;;11.58;58.75;100568.19;1765251;81;22591;-72
2021/10/14 09:27:07;;;;;;;9.75;6.30;;;;;;;11.63;58.91;100567.32;1753656;81;21426;-73
2021/10/14 09:29:37;;;;;;;9.25;6.40;;;;;;;11.79;59.16;100572.70;1765390;81;21411;-72
2021/10/14 09:32:05;;;;;;;7.62;5.92;;;;;;;11.99;59.35;100574.11;1765357;81;20964;-73
2021/10/14 09:34:39;;;;;;;8.00;5.58;;;;;;;12.17;58.98;100567.78;1765387;81;20980;-73
2021/10/14 09:37:18;;;;;;;;;;;;;;;12.28;58.11;100566.89;1767732;81;21835;-74
2021/10/14 09:40:09;;;;;;;7.15;5.30;;;;;;;12.28;57.57;100573.03;1765133;79;20140;-73
2021/10/14 09:42:53;;;;;;;6.45;4.53;;;;;;;12.26;56.72;100570.16;1765119;81;20944;-72
2021/10/14 09:45:26;;;;;;;7.05;4.67;;;;;;;12.32;56.45;100569.63;1763121;81;21471;-72
2021/10/14 09:48:08;;;;;;;7.55;5.20;;;;;;;12.39;55.18;100568.16;1765326;81;20944;-71
2021/10/14 09:50:40;;;;;;;8.08;4.50;;;;;;;12.44;55.83;100557.16;1765223;81;22645;-72
2021/10/14 09:53:18;;;;;;;7.70;4.60;;;;;;;12.57;55.42;100560.47;1749881;81;21577;-74
2021/10/14 09:55:45;;;;;;;8.05;4.50;;;;;;;12.71;55.90;100561.45;1743343;79;20956;-73
2021/10/14 09:58:12;;;;;;;7.33;4.90;;;;;;;12.93;54.65;100572.85;1743890;81;21024;-71
2021/10/14 10:00:40;;;;;;;8.83;5.62;;;;;;;12.95;54.10;100570.94;1736319;81;21493;-71
2021/10/14 10:03:11;;;;;;;13.00;5.90;;;;;;;13.03;54.11;100575.09;1743443;81;22451;-71
2021/10/14 10:05:39;;;;;;;7.45;5.22;;;;;;;13.15;53.54;100566.91;1740555;81;21000;-72
2021/10/14 10:08:08;;;;;;;7.08;4.87;;;;;;;13.27;52.74;100577.45;1745380;81;21474;-67
2021/10/14 10:10:37;;;;;;;8.25;4.78;;;;;;;13.33;52.47;100579.09;1753012;80;21082;-67
2021/10/14 10:13:06;;;;;;;10.80;4.70;;;;;;;13.32;52.42;100578.73;1764215;80;21086;-68
2021/10/14 10:15:48;;;;;;;7.53;4.72;;;;;;;13.32;52.42;100572.10;1762544;80;22196;-67
2021/10/14 10:18:35;;;;;;;7.42;4.67;;;;;;;13.40;51.28;100574.89;1772755;80;20957;-68
2021/10/14 10:21:06;;;;;;;6.90;4.30;;;;;;;13.32;51.37;100584.53;1764592;80;21067;-68
2021/10/14 10:23:49;;;;;;;9.28;4.85;;;;;;;13.19;51.62;100586.06;1772354;80;21441;-68
2021/10/14 10:26:42;;;;;;;6.37;4.40;;;;;;;13.05;51.32;100589.89;1754065;80;21071;-71
2021/10/14 10:29:24;;;;;;;7.58;4.87;;;;;;;12.94;50.85;100591.80;1759620;80;21862;-70
2021/10/14 10:32:00;;;;;;;8.60;4.95;;;;;;;12.95;52.20;100592.14;1768304;80;20969;-71
2021/10/14 10:37:39;;;;;;;6.37;4.40;;;;;;;13.49;51.15;100591.82;1697714;81;21003;-73
2021/10/14 10:40:25;;;;;;;5.87;4.28;;;;;;;13.66;50.47;100611.57;1804642;78;21022;-74
2021/10/14 10:43:11;;;;;;;5.80;4.75;;;;;;;13.58;49.51;100615.39;1808756;78;22291;-78
2021/10/14 10:45:52;;;;;;;6.17;4.58;;;;;;;13.44;49.41;100617.45;1801939;78;21391;-76
2021/10/14 10:48:40;;;;;;;7.22;4.70;;;;;;;13.35;49.74;100624.05;1754018;81;21035;-70
2021/10/14 10:51:08;;;;;;;6.17;4.70;;;;;;;13.23;49.77;100627.77;1754767;81;20960;-70
2021/10/14 10:53:42;;;;;;;7.28;4.75;;;;;;;13.17;50.01;100623.30;1755400;81;20984;-70
2021/10/14 10:56:27;;;;;;;5.22;4.15;;;;;;;13.18;49.82;100626.30;1752885;80;21825;-72
2021/10/14 10:58:53;;;;;;;6.65;4.67;;;;;;;13.27;50.61;100627.84;1708705;81;20950;-72
2021/10/14 11:01:20;;;;;;;5.60;4.60;;;;;;;13.52;49.97;100623.42;1761053;81;21050;-72
2021/10/14 11:04:01;;;;;;;7.15;5.08;;;;;;;13.72;50.01;100628.30;1761560;80;21013;-72
2021/10/14 11:06:30;;;;;;;10.08;5.50;;;;;;;13.75;49.43;100638.63;1761762;80;21563;-74
2021/10/14 11:09:11;;;;;;;7.80;5.50;;;;;;;13.53;49.43;100633.05;1751339;81;21777;-72
2021/10/14 11:11:37;;;;;;;8.33;6.00;;;;;;;13.44;49.70;100643.15;1752212;80;20973;-74
2021/10/14 11:14:05;;;;;;;7.70;5.67;;;;;;;13.46;50.25;100642.52;1752985;81;20943;-73
2021/10/14 11:16:33;;;;;;;8.05;5.37;;;;;;;13.54;50.01;100640.04;1789419;78;21423;-69
2021/10/14 11:19:01;;;;;;;8.98;5.40;;;;;;;13.49;49.81;100636.94;1789027;80;20995;-76
2021/10/14 11:21:28;;;;;;;9.45;5.10;;;;;;;13.38;49.82;100642.34;1804618;78;21809;-75
2021/10/14 11:23:57;;;;;;;7.22;5.37;;;;;;;13.33;50.49;100645.90;1821377;78;20940;-75
2021/10/14 11:26:35;;;;;;;8.53;5.50;;;;;;;13.37;50.68;100649.46;1806536;78;21010;-75
2021/10/14 11:29:18;;;;;;;7.72;5.70;;;;;;;13.37;50.57;100653.44;1788894;80;21015;-75
2021/10/14 11:31:56;;;;;;;8.55;6.33;;;;;;;13.33;50.17;100652.53;1788865;80;21620;-76